Terminal Aerodrome Forecast
Issued by NWS Sioux Falls, SD

Home | Current Version | Previous Version | Text Only | Print | Product List | Glossary Off
Versions: 1 2 3 4 5 6 7 8 9 10 11 12 13 14 15 16 17 18 19 20 21 22 23 24 25 26 27 28 29 30 31 32 33 34 35 36 37

000
FTUS43 KFSD 241739
TAFSUX
TAF
KSUX 241739Z 2418/2518 18015G23KT P6SM VCTS SCT050CB
     FM242200 31009KT 6SM SHRA VCTS SCT010 BKN015 OVC050CB
     FM250200 32006KT 6SM -SHRA BKN070
     FM250500 35009KT 4SM SHRA OVC006=

USA.gov is the U.S. government's official web portal to all federal, state and local government web resources and services.